createdAt,value
2023-02-20T00:02:16.641Z,67.38
2023-02-20T00:05:32.034Z,65.78
2023-02-20T00:08:33.732Z,66.89
2023-02-20T00:11:48.056Z,66.13
2023-02-20T00:14:49.866Z,65.45
2023-02-20T00:18:04.081Z,64.57
2023-02-20T00:21:13.082Z,64.22
2023-02-20T00:24:21.950Z,64.58
2023-02-20T00:27:30.039Z,64.88
2023-02-20T00:30:46.337Z,64.76
2023-02-20T00:33:54.097Z,64.08
2023-02-20T00:37:02.843Z,63.79
2023-02-20T00:40:12.039Z,64.25
2023-02-20T00:43:27.096Z,64.18
2023-02-20T00:46:28.824Z,63.35
2023-02-20T00:49:43.142Z,63.33
2023-02-20T00:52:52.088Z,64.02
2023-02-20T00:56:07.082Z,64.28
2023-02-20T00:59:08.889Z,64.36
2023-02-20T01:02:23.136Z,64.30
2023-02-20T01:05:31.117Z,65.21
2023-02-20T01:08:47.066Z,65.04
2023-02-20T01:11:55.045Z,65.90
2023-02-20T01:15:04.845Z,65.09
2023-02-20T01:18:13.071Z,65.81
2023-02-20T01:21:33.045Z,67.37
2023-02-20T01:24:34.749Z,68.86
2023-02-20T01:27:49.060Z,70.19
2023-02-20T01:30:57.138Z,71.39
2023-02-20T01:34:19.070Z,71.76
2023-02-20T01:37:20.738Z,72.55
2023-02-20T01:40:35.092Z,73.31
2023-02-20T01:43:43.639Z,73.68
2023-02-20T01:46:55.109Z,73.67
2023-02-20T01:50:03.912Z,74.19
2023-02-20T01:53:20.081Z,74.25
2023-02-20T01:56:35.072Z,74.53
2023-02-20T01:59:46.083Z,74.77
2023-02-20T02:03:02.815Z,74.97
2023-02-20T02:06:16.066Z,75.54
2023-02-20T02:09:44.081Z,75.84
2023-02-20T02:12:56.074Z,76.29
2023-02-20T02:16:24.708Z,76.58
2023-02-20T02:20:01.042Z,77.02
2023-02-20T02:23:38.059Z,77.22
2023-02-20T02:27:19.709Z,77.87
2023-02-20T02:31:08.160Z,78.22
2023-02-20T02:34:44.517Z,78.25
2023-02-20T02:38:21.065Z,78.25
2023-02-20T02:41:46.361Z,78.27
2023-02-20T02:45:11.135Z,77.91
2023-02-20T02:48:41.094Z,77.21
2023-02-20T02:51:52.674Z,76.17
2023-02-20T02:55:07.082Z,76.02
2023-02-20T02:58:18.047Z,76.41
2023-02-20T03:01:35.086Z,76.35
2023-02-20T03:04:44.109Z,76.37
2023-02-20T03:07:57.881Z,76.90
2023-02-20T03:11:15.057Z,77.35
2023-02-20T03:14:34.750Z,77.73
2023-02-20T03:17:49.101Z,78.86
2023-02-20T03:21:11.056Z,80.26
2023-02-20T03:24:15.425Z,81.35
2023-02-20T03:27:37.147Z,82.15
2023-02-20T03:31:07.065Z,82.73
2023-02-20T03:34:24.938Z,82.64
2023-02-20T03:37:39.052Z,83.32
2023-02-20T03:40:51.004Z,83.80
2023-02-20T03:44:00.045Z,83.91
2023-02-20T03:47:20.079Z,83.63
2023-02-20T03:50:22.289Z,83.59
2023-02-20T03:53:38.166Z,83.38
2023-02-20T03:56:45.541Z,83.96
2023-02-20T04:00:13.109Z,83.93
2023-02-20T04:03:29.105Z,83.64
2023-02-20T04:06:40.243Z,83.77
2023-02-20T04:09:52.083Z,84.22
2023-02-20T04:13:09.120Z,84.12
2023-02-20T04:16:18.116Z,84.08
2023-02-20T04:19:27.173Z,84.50
2023-02-20T04:22:41.080Z,84.54
2023-02-20T04:26:02.486Z,84.56
2023-02-20T04:29:12.074Z,83.81
2023-02-20T04:32:34.072Z,83.43
2023-02-20T04:35:49.093Z,83.16
2023-02-20T04:38:58.107Z,82.32
2023-02-20T04:42:07.049Z,82.04
2023-02-20T04:45:15.036Z,81.87
2023-02-20T04:48:23.821Z,81.70
2023-02-20T04:51:38.037Z,81.30
2023-02-20T04:54:46.164Z,82.17
2023-02-20T04:57:55.107Z,82.43
2023-02-20T05:01:09.124Z,82.39
2023-02-20T05:04:19.393Z,81.75
2023-02-20T05:07:27.074Z,81.84
2023-02-20T05:10:44.081Z,81.51
2023-02-20T05:13:59.097Z,81.36
2023-02-20T05:17:07.096Z,81.03
2023-02-20T05:20:16.981Z,80.97
2023-02-20T05:23:51.085Z,80.23
2023-02-20T05:27:06.201Z,80.21
2023-02-20T05:30:16.020Z,79.71
2023-02-20T05:33:24.129Z,79.73
2023-02-20T05:36:39.065Z,79.96
2023-02-20T05:39:47.764Z,80.78
2023-02-20T05:43:02.090Z,81.22
2023-02-20T05:49:24.088Z,80.98
2023-02-20T05:52:39.157Z,80.93
2023-02-20T05:56:14.048Z,81.23
2023-02-20T05:59:26.209Z,81.09
2023-02-20T06:06:40.122Z,81.17
2023-02-20T06:09:57.851Z,81.00
2023-02-20T06:13:00.136Z,80.31
2023-02-20T06:20:10.119Z,79.85
2023-02-20T06:23:25.094Z,79.82
2023-02-20T06:26:39.676Z,79.72
2023-02-20T06:29:48.194Z,79.83
2023-02-20T06:33:10.092Z,80.40
2023-02-20T06:36:21.287Z,80.89
2023-02-20T06:39:30.095Z,80.99
2023-02-20T06:42:38.787Z,80.92
2023-02-20T06:49:39.164Z,80.67
2023-02-20T07:00:46.500Z,79.41
2023-02-20T07:04:09.183Z,78.92
2023-02-20T07:07:48.122Z,78.92
2023-02-20T07:22:27.230Z,78.58
2023-02-20T07:33:51.416Z,78.55
2023-02-20T07:52:05.154Z,70.99
2023-02-20T07:55:16.091Z,71.56
2023-02-20T08:17:07.175Z,73.29
2023-02-20T08:20:30.093Z,72.32
2023-02-20T08:23:51.126Z,72.14
2023-02-20T08:27:02.524Z,72.98
2023-02-20T08:34:12.206Z,75.37
2023-02-20T08:41:55.558Z,77.70
2023-02-20T08:49:20.613Z,77.85
2023-02-20T08:57:02.215Z,79.10
2023-02-20T09:00:20.334Z,79.30
2023-02-20T09:08:13.112Z,79.20
2023-02-20T09:19:12.126Z,80.07
2023-02-20T09:22:38.182Z,78.24
2023-02-20T09:25:47.145Z,78.31
2023-02-20T09:29:02.158Z,79.05
2023-02-20T09:36:31.843Z,82.28
2023-02-20T09:39:56.748Z,83.55
2023-02-20T09:43:25.201Z,82.85
2023-02-20T09:46:34.302Z,82.31
2023-02-20T09:50:10.370Z,83.40
2023-02-20T10:20:48.202Z,83.09
2023-02-20T10:24:33.144Z,81.59
2023-02-20T10:28:18.243Z,82.01
2023-02-20T10:31:40.621Z,81.69
2023-02-20T10:35:10.135Z,82.29
2023-02-20T10:38:24.886Z,82.65
2023-02-20T10:49:42.257Z,83.15
2023-02-20T10:53:06.226Z,82.26
2023-02-20T10:56:24.390Z,81.33
2023-02-20T11:03:59.199Z,79.74
2023-02-20T11:22:35.205Z,77.01
2023-02-20T11:25:50.821Z,75.08
2023-02-20T11:29:29.629Z,73.06
2023-02-20T11:36:52.183Z,72.36
2023-02-20T11:40:29.559Z,72.32
2023-02-20T11:44:01.020Z,73.33
2023-02-20T11:47:35.188Z,73.92
2023-02-20T11:51:05.081Z,74.06
2023-02-20T12:02:02.204Z,74.32
2023-02-20T12:09:41.234Z,73.18
2023-02-20T12:13:07.093Z,72.90
2023-02-20T12:20:22.289Z,71.14
2023-02-20T12:23:47.184Z,70.58
2023-02-20T12:27:05.187Z,69.87
2023-02-20T12:30:43.520Z,68.74
2023-02-20T12:34:12.255Z,67.54
2023-02-20T12:37:51.451Z,67.66
2023-02-20T12:41:23.197Z,67.33
2023-02-20T12:44:59.174Z,67.42
2023-02-20T12:48:44.218Z,67.23
2023-02-20T12:56:16.203Z,67.55
2023-02-20T13:00:01.333Z,68.44
2023-02-20T13:07:32.701Z,67.87
2023-02-20T13:11:06.316Z,67.34
2023-02-20T13:26:58.470Z,66.72
2023-02-20T13:30:59.278Z,65.58
2023-02-20T14:02:03.776Z,62.29
2023-02-20T14:05:21.761Z,61.91
2023-02-20T14:28:23.255Z,61.47
2023-02-20T14:31:36.332Z,61.83
2023-02-20T14:35:06.237Z,61.81
2023-02-20T14:42:31.258Z,61.67
2023-02-20T14:45:40.072Z,61.45
2023-02-20T14:48:48.332Z,62.22
2023-02-20T15:03:31.617Z,66.20
2023-02-20T15:06:42.629Z,67.89
2023-02-20T15:14:36.235Z,70.38
2023-02-20T15:17:42.933Z,70.76
2023-02-20T15:36:12.737Z,73.02
2023-02-20T15:43:47.209Z,74.40
2023-02-20T15:47:03.248Z,75.27
2023-02-20T16:02:51.832Z,78.64
2023-02-20T16:18:01.343Z,79.41
2023-02-20T16:32:38.084Z,80.38
2023-02-20T16:44:48.507Z,79.93
2023-02-20T16:48:27.281Z,80.33
2023-02-20T17:00:40.227Z,81.51
2023-02-20T17:03:53.070Z,82.34
2023-02-20T17:10:42.311Z,82.27
2023-02-20T17:13:51.357Z,82.01
2023-02-20T17:17:06.331Z,82.10
2023-02-20T17:20:11.769Z,81.95
2023-02-20T17:27:07.354Z,82.57
2023-02-20T17:30:28.320Z,82.83
2023-02-20T17:33:43.252Z,83.16
2023-02-20T17:37:24.263Z,83.41
2023-02-20T17:40:28.033Z,83.45
2023-02-20T17:43:42.306Z,83.85
2023-02-20T17:50:24.286Z,84.22
2023-02-20T17:53:33.794Z,84.73
2023-02-20T17:56:50.416Z,85.38
2023-02-20T17:59:52.552Z,85.59
2023-02-20T18:03:07.296Z,86.10
2023-02-20T18:06:23.861Z,86.11
2023-02-20T18:09:55.457Z,85.79
2023-02-20T18:17:28.263Z,84.21
2023-02-20T18:20:46.637Z,84.56
2023-02-20T18:24:02.232Z,84.70
2023-02-20T18:27:04.368Z,84.51
2023-02-20T18:30:20.404Z,84.25
2023-02-20T18:33:22.445Z,84.44
2023-02-20T18:36:38.249Z,84.51
2023-02-20T18:39:39.949Z,84.58
2023-02-20T18:42:55.282Z,84.90
2023-02-20T18:45:58.576Z,85.05
2023-02-20T18:49:14.282Z,85.57
2023-02-20T19:00:13.297Z,86.95
2023-02-20T19:03:28.557Z,87.10
2023-02-20T19:06:40.467Z,87.06
2023-02-20T19:09:51.620Z,87.15
2023-02-20T19:13:01.296Z,86.75
2023-02-20T19:16:31.245Z,86.95
2023-02-20T19:56:04.338Z,91.36
2023-02-20T19:59:13.285Z,91.75
2023-02-20T20:02:25.023Z,89.89
2023-02-20T20:05:34.232Z,89.15
2023-02-20T20:09:35.154Z,85.29
2023-02-20T20:20:30.289Z,83.18
2023-02-20T20:23:53.374Z,82.84
2023-02-20T20:27:02.169Z,82.67
2023-02-20T20:30:13.566Z,83.53
2023-02-20T20:33:28.312Z,83.98
2023-02-20T20:36:30.210Z,84.25
2023-02-20T20:39:45.401Z,84.66
2023-02-20T20:42:47.503Z,84.69
2023-02-20T20:50:52.333Z,84.84
2023-02-20T20:53:59.158Z,84.71
2023-02-20T20:57:14.307Z,85.68
2023-02-20T21:00:32.322Z,86.91
2023-02-20T21:03:43.548Z,86.73
2023-02-20T21:07:14.650Z,87.14
2023-02-20T21:10:25.749Z,87.51
2023-02-20T21:17:41.308Z,88.46
2023-02-20T21:20:49.941Z,89.19
2023-02-20T21:23:59.331Z,89.47
2023-02-20T21:27:07.957Z,89.47
2023-02-20T21:30:17.373Z,90.11
2023-02-20T21:33:32.351Z,90.93
2023-02-20T21:36:41.642Z,91.32
2023-02-20T21:39:56.400Z,91.86
2023-02-20T21:43:04.845Z,92.06
2023-02-20T21:46:15.376Z,92.42
2023-02-20T21:49:31.347Z,92.42
2023-02-20T21:52:33.269Z,92.57
2023-02-20T21:55:49.297Z,92.50
2023-02-20T21:59:06.295Z,92.68
2023-02-20T22:02:08.669Z,92.65
2023-02-20T22:05:26.394Z,92.79
2023-02-20T22:08:41.298Z,92.93
2023-02-20T22:11:49.923Z,93.54
2023-02-20T22:14:58.363Z,94.24
2023-02-20T22:18:15.602Z,94.75
2023-02-20T22:21:27.347Z,95.26
2023-02-20T22:24:39.398Z,95.75
2023-02-20T22:27:47.355Z,96.09
2023-02-20T22:31:03.425Z,96.72
2023-02-20T22:34:05.266Z,97.43
2023-02-20T22:37:21.405Z,98.03
2023-02-20T22:40:23.780Z,98.58
2023-02-20T22:43:38.375Z,98.52
2023-02-20T22:46:46.422Z,98.09
2023-02-20T22:49:55.063Z,97.35
2023-02-20T22:53:03.344Z,96.96
2023-02-20T22:56:21.615Z,96.87
2023-02-20T22:59:30.402Z,96.97
2023-02-20T23:02:47.516Z,97.00
2023-02-20T23:06:02.528Z,97.59
2023-02-20T23:09:19.404Z,98.21
2023-02-20T23:12:27.324Z,95.81
2023-02-20T23:15:42.361Z,96.25
2023-02-20T23:18:50.551Z,93.65
2023-02-20T23:22:05.330Z,94.23
2023-02-20T23:25:13.389Z,92.06
2023-02-20T23:28:36.740Z,90.56
2023-02-20T23:31:48.388Z,89.85
2023-02-20T23:35:03.370Z,89.55
2023-02-20T23:38:05.117Z,89.41
2023-02-20T23:41:19.433Z,89.20
2023-02-20T23:44:27.818Z,88.90
2023-02-20T23:47:36.364Z,88.31
2023-02-20T23:50:51.340Z,88.64
2023-02-20T23:53:53.182Z,87.46
2023-02-20T23:57:08.333Z,85.03
